createdAt,value
2023-05-08T00:04:11.966Z,1.30
2023-05-08T00:09:15.547Z,1.25
2023-05-08T00:14:19.111Z,1.25
2023-05-08T00:19:23.827Z,1.40
2023-05-08T00:24:27.343Z,1.40
2023-05-08T00:29:30.768Z,1.40
2023-05-08T00:34:35.787Z,1.35
2023-05-08T00:39:39.374Z,1.20
2023-05-08T00:44:42.751Z,1.23
2023-05-08T00:49:47.553Z,1.20
2023-05-08T00:54:51.343Z,1.30
2023-05-08T00:59:55.830Z,1.17
2023-05-08T01:05:01.416Z,1.13
2023-05-08T01:10:05.301Z,1.20
2023-05-08T01:15:16.867Z,1.30
2023-05-08T01:20:39.365Z,1.15
2023-05-08T01:26:18.454Z,1.30
2023-05-08T01:31:28.664Z,1.27
2023-05-08T01:36:42.603Z,1.40
2023-05-08T01:42:03.492Z,1.25
2023-05-08T01:47:11.407Z,1.40
2023-05-08T01:52:29.557Z,1.10
2023-05-08T01:57:41.356Z,1.38
2023-05-08T02:02:46.799Z,1.20
2023-05-08T02:07:53.447Z,1.30
2023-05-08T02:12:58.411Z,1.10
2023-05-08T02:18:02.267Z,1.30
2023-05-08T02:23:07.844Z,1.20
2023-05-08T02:28:11.607Z,1.15
2023-05-08T02:33:17.021Z,1.30
2023-05-08T02:38:24.010Z,1.20
2023-05-08T02:43:28.220Z,1.20
2023-05-08T02:48:38.025Z,1.35
2023-05-08T02:53:52.466Z,1.23
2023-05-08T02:59:09.194Z,1.00
2023-05-08T03:04:24.370Z,1.20
2023-05-08T03:09:40.907Z,1.10
2023-05-08T03:14:52.741Z,1.30
2023-05-08T03:20:01.899Z,1.13
2023-05-08T03:25:10.745Z,1.13
2023-05-08T03:30:16.770Z,1.20
2023-05-08T03:35:24.316Z,1.10
2023-05-08T03:40:30.105Z,1.15
2023-05-08T03:45:37.778Z,1.33
2023-05-08T03:50:41.470Z,1.15
2023-05-08T03:55:48.048Z,1.20
2023-05-08T04:01:05.339Z,1.00
2023-05-08T04:06:16.826Z,1.13
2023-05-08T04:11:32.967Z,1.20
2023-05-08T04:16:41.183Z,1.10
2023-05-08T04:21:47.158Z,1.20
2023-05-08T04:26:53.272Z,1.40
2023-05-08T04:31:58.695Z,1.20
2023-05-08T04:37:02.409Z,1.30
2023-05-08T04:42:07.606Z,1.20
2023-05-08T04:47:12.334Z,1.20
2023-05-08T04:52:15.963Z,1.20
2023-05-08T04:57:21.159Z,1.25
2023-05-08T05:02:27.151Z,1.33
2023-05-08T05:07:31.582Z,1.23
2023-05-08T05:12:36.587Z,1.20
2023-05-08T05:17:40.207Z,1.40
2023-05-08T05:22:43.792Z,1.20
2023-05-08T05:27:48.766Z,1.50
2023-05-08T05:32:52.428Z,1.45
2023-05-08T05:37:56.249Z,1.50
2023-05-08T05:43:01.307Z,1.30
2023-05-08T05:48:05.235Z,1.10
2023-05-08T05:53:09.957Z,1.30
2023-05-08T05:58:15.835Z,1.27
2023-05-08T06:03:20.555Z,1.30
2023-05-08T06:08:24.072Z,1.30
2023-05-08T06:13:28.914Z,1.85
2023-05-08T06:18:32.776Z,4.65
2023-05-08T06:23:36.307Z,6.90
2023-05-08T06:28:41.003Z,7.68
2023-05-08T06:33:44.332Z,8.75
2023-05-08T06:38:47.695Z,9.07
2023-05-08T06:43:52.401Z,8.43
2023-05-08T06:48:55.756Z,9.70
2023-05-08T06:53:59.115Z,9.15
2023-05-08T06:59:08.205Z,9.75
2023-05-08T07:04:12.495Z,9.02
2023-05-08T07:09:18.923Z,9.13
2023-05-08T07:14:23.719Z,9.25
2023-05-08T07:19:27.135Z,10.02
2023-05-08T07:24:30.530Z,9.00
2023-05-08T07:29:35.889Z,10.55
2023-05-08T07:34:39.268Z,10.30
2023-05-08T07:39:42.664Z,10.02
2023-05-08T07:44:54.454Z,10.20
2023-05-08T07:49:58.803Z,10.05
2023-05-08T07:55:02.724Z,10.40
2023-05-08T08:00:10.459Z,11.70
2023-05-08T08:05:20.197Z,11.10
2023-05-08T08:10:23.665Z,11.00
2023-05-08T08:15:29.052Z,10.43
2023-05-08T08:20:32.489Z,11.55
2023-05-08T08:25:35.974Z,11.40
2023-05-08T08:30:40.939Z,13.50
2023-05-08T08:35:44.294Z,14.52
2023-05-08T08:40:47.717Z,13.77
2023-05-08T08:45:52.747Z,15.88
2023-05-08T08:51:03.836Z,16.83
2023-05-08T08:56:10.398Z,15.80
2023-05-08T09:01:19.464Z,16.55
2023-05-08T09:06:23.030Z,16.55
2023-05-08T09:11:26.486Z,17.80
2023-05-08T09:16:31.423Z,17.00
2023-05-08T09:21:35.865Z,16.92
2023-05-08T09:26:41.828Z,16.38
2023-05-08T09:31:48.941Z,15.07
2023-05-08T09:36:52.369Z,15.30
2023-05-08T09:41:59.954Z,16.48
2023-05-08T09:47:24.051Z,17.13
2023-05-08T09:52:27.887Z,16.60
2023-05-08T09:57:33.371Z,15.20
2023-05-08T10:02:40.863Z,16.23
2023-05-08T10:12:47.514Z,14.75
2023-05-08T10:17:59.565Z,15.70
2023-05-08T10:23:04.545Z,15.43
2023-05-08T10:28:17.659Z,14.35
2023-05-08T10:33:31.215Z,14.90
2023-05-08T10:38:35.339Z,14.93
2023-05-08T10:43:44.034Z,13.43
2023-05-08T10:48:59.680Z,13.48
2023-05-08T10:54:12.886Z,12.68
2023-05-08T10:59:20.693Z,13.10
2023-05-08T11:04:25.709Z,12.88
2023-05-08T11:09:31.395Z,12.57
2023-05-08T11:14:37.756Z,12.63
2023-05-08T11:19:59.192Z,12.48
2023-05-08T11:25:07.072Z,13.52
2023-05-08T11:30:28.262Z,12.25
2023-05-08T11:35:55.633Z,12.40
2023-05-08T11:46:18.782Z,11.75
2023-05-08T11:51:23.754Z,9.80
2023-05-08T11:56:27.449Z,10.32
2023-05-08T12:01:32.984Z,9.52
2023-05-08T12:06:40.323Z,9.38
2023-05-08T12:11:45.410Z,8.82
2023-05-08T12:16:48.835Z,8.38
2023-05-08T12:21:53.612Z,7.97
2023-05-08T12:26:57.165Z,8.23
2023-05-08T12:32:01.011Z,7.90
2023-05-08T12:37:06.992Z,8.10
2023-05-08T12:42:10.326Z,7.57
2023-05-08T12:47:13.784Z,7.90
2023-05-08T12:52:19.357Z,7.95
2023-05-08T12:57:22.813Z,7.03
2023-05-08T13:02:27.338Z,7.20
2023-05-08T13:07:35.790Z,7.40
2023-05-08T13:12:39.237Z,7.20
2023-05-08T13:17:42.830Z,7.68
2023-05-08T13:22:47.611Z,6.93
2023-05-08T13:27:50.986Z,7.88
2023-05-08T13:32:55.060Z,7.43
2023-05-08T13:38:00.542Z,6.85
2023-05-08T13:43:03.965Z,6.70
2023-05-08T13:48:08.229Z,7.28
2023-05-08T13:53:13.047Z,7.20
2023-05-08T13:58:16.416Z,7.03
2023-05-08T14:03:19.861Z,6.88
2023-05-08T14:08:24.671Z,6.80
2023-05-08T14:13:28.162Z,6.72
2023-05-08T14:18:31.599Z,6.22
2023-05-08T14:23:37.595Z,6.32
2023-05-08T14:28:40.960Z,6.15
2023-05-08T14:33:44.319Z,6.47
2023-05-08T14:38:49.164Z,6.43
2023-05-08T14:43:52.532Z,6.32
2023-05-08T14:48:56.955Z,6.50
2023-05-08T14:54:01.985Z,6.65
2023-05-08T14:59:05.716Z,6.50
2023-05-08T15:04:09.143Z,6.10
2023-05-08T15:09:13.939Z,6.00
2023-05-08T15:14:17.316Z,6.50
2023-05-08T15:19:20.664Z,6.50
2023-05-08T15:24:25.418Z,6.47
2023-05-08T15:29:28.908Z,6.40
2023-05-08T15:34:32.808Z,6.82
2023-05-08T15:39:38.710Z,6.75
2023-05-08T15:44:54.664Z,6.20
2023-05-08T15:49:58.448Z,6.30
2023-05-08T15:55:03.399Z,6.07
2023-05-08T16:00:09.438Z,5.95
2023-05-08T16:05:13.108Z,5.90
2023-05-08T16:10:18.312Z,5.78
2023-05-08T16:15:21.707Z,5.93
2023-05-08T16:20:25.476Z,5.70
2023-05-08T16:25:30.407Z,5.30
2023-05-08T16:30:33.804Z,5.30
2023-05-08T16:35:37.207Z,5.50
2023-05-08T16:40:42.686Z,5.25
2023-05-08T16:45:46.067Z,5.53
2023-05-08T16:50:49.451Z,4.95
2023-05-08T16:55:54.308Z,4.53
2023-05-08T17:00:57.728Z,4.55
2023-05-08T17:06:01.119Z,4.40
2023-05-08T17:11:06.037Z,4.28
2023-05-08T17:16:09.866Z,3.92
2023-05-08T17:21:13.399Z,4.10
2023-05-08T17:26:18.296Z,3.80
2023-05-08T17:31:22.042Z,3.70
2023-05-08T17:36:25.442Z,3.40
2023-05-08T17:41:30.350Z,3.67
2023-05-08T17:46:33.831Z,3.90
2023-05-08T17:51:38.195Z,3.53
2023-05-08T17:56:43.022Z,4.28
2023-05-08T18:01:46.537Z,3.45
2023-05-08T18:06:51.655Z,3.22
2023-05-08T18:12:02.104Z,3.65
2023-05-08T18:17:05.819Z,3.33
2023-05-08T18:22:09.190Z,3.10
2023-05-08T18:27:13.963Z,3.63
2023-05-08T18:32:17.322Z,3.10
2023-05-08T18:37:20.700Z,3.13
2023-05-08T18:42:25.455Z,2.67
2023-05-08T18:47:28.947Z,3.55
2023-05-08T18:52:32.301Z,3.10
2023-05-08T18:57:37.058Z,3.28
2023-05-08T19:02:41.079Z,3.05
2023-05-08T19:07:45.229Z,3.20
2023-05-08T19:12:50.653Z,3.50
2023-05-08T19:17:54.132Z,3.40
2023-05-08T19:22:57.681Z,3.20
2023-05-08T19:28:04.004Z,3.20
2023-05-08T19:33:07.506Z,3.33
2023-05-08T19:38:10.938Z,3.80
2023-05-08T19:43:15.714Z,3.60
2023-05-08T19:48:20.058Z,3.22
2023-05-08T19:53:23.853Z,3.50
2023-05-08T19:58:28.752Z,3.40
2023-05-08T20:03:32.246Z,3.40
2023-05-08T20:08:36.524Z,3.90
2023-05-08T20:13:41.440Z,3.70
2023-05-08T20:18:44.926Z,3.70
2023-05-08T20:23:48.591Z,3.40
2023-05-08T20:28:53.380Z,3.38
2023-05-08T20:33:56.756Z,3.60
2023-05-08T20:39:00.151Z,3.50
2023-05-08T20:44:04.932Z,3.42
2023-05-08T20:49:08.294Z,3.33
2023-05-08T20:54:11.656Z,3.80
2023-05-08T20:59:17.003Z,3.63
2023-05-08T21:04:20.497Z,3.60
2023-05-08T21:09:23.909Z,3.30
2023-05-08T21:14:28.646Z,3.47
2023-05-08T21:19:32.589Z,3.58
2023-05-08T21:24:36.100Z,3.10
2023-05-08T21:29:42.018Z,3.55
2023-05-08T21:34:45.380Z,3.53
2023-05-08T21:39:48.791Z,3.53
2023-05-08T21:44:55.827Z,3.70
2023-05-08T21:49:59.156Z,3.88
2023-05-08T21:55:08.253Z,3.75
2023-05-08T22:00:15.494Z,3.60
2023-05-08T22:05:25.249Z,3.83
2023-05-08T22:10:28.624Z,3.75
2023-05-08T22:15:33.625Z,4.20
2023-05-08T22:20:37.216Z,3.75
2023-05-08T22:25:40.909Z,3.75
2023-05-08T22:30:45.614Z,3.90
2023-05-08T22:35:49.131Z,3.95
2023-05-08T22:40:52.703Z,3.72
2023-05-08T22:45:58.897Z,4.03
2023-05-08T22:51:02.345Z,4.07
2023-05-08T22:56:06.608Z,4.38
2023-05-08T23:01:11.878Z,4.30
2023-05-08T23:06:15.303Z,3.95
2023-05-08T23:11:18.817Z,4.35
2023-05-08T23:16:23.596Z,4.80
2023-05-08T23:21:27.823Z,4.35
2023-05-08T23:26:31.187Z,4.63
2023-05-08T23:31:36.097Z,5.00
2023-05-08T23:36:39.458Z,4.47
2023-05-08T23:41:42.873Z,4.78
2023-05-08T23:46:47.864Z,4.80
2023-05-08T23:51:51.383Z,4.80
2023-05-08T23:56:54.753Z,4.70
